Time;durP1;ratioP1;P1;durP2;ratioP2;P2;SDS_P1;SDS_P2;PMS_P1;PMS_P2;Temp;Humidity;BMP_temperature;BMP_pressure;BME280_temperature;BME280_humidity;BME280_pressure;Samples;Min_cycle;Max_cycle;Signal;HPM_P1;HPM_P2
2022/06/08 00:00:06;;;;;;;;;;;19.20;87.10;19.40;99338.00;;;;337707;28;83422;-86
2022/06/08 00:00:20;;;;;;;;;;;19.20;87.60;19.50;99343.00;;;;337200;28;90398;-86
2022/06/08 00:00:32;;;;;;;;;;;19.20;87.80;19.50;99336.00;;;;337706;28;82510;-86
2022/06/08 00:00:46;;;;;;;;;;;19.20;88.10;19.50;99341.00;;;;338706;28;91155;-86
2022/06/08 00:00:58;;;;;;;;;;;19.20;87.70;19.50;99347.00;;;;340045;28;83427;-86
2022/06/08 00:01:14;;;;;;;;;;;19.20;87.60;19.40;99335.00;;;;337278;28;91255;-86
2022/06/08 00:01:26;;;;;;;;;;;19.20;87.70;19.50;99343.00;;;;339040;28;82759;-86
2022/06/08 00:01:38;;;;;;;;;;;19.20;87.50;19.40;99343.00;;;;341337;28;88596;-86
2022/06/08 00:01:50;;;;;;;;;;;19.20;88.80;19.40;99339.00;;;;337696;28;83505;-87
2022/06/08 00:02:04;;;;;;;;;;;19.20;88.40;19.50;99339.00;;;;338687;28;90163;-85
2022/06/08 00:02:16;;;;;;;;;;;19.20;88.10;19.40;99340.00;;;;338972;28;83595;-86
2022/06/08 00:02:29;;;;;;;;;;;19.20;88.10;19.40;99338.00;;;;338481;28;90418;-86
2022/06/08 00:02:40;;;;;;;;;;;19.20;88.10;19.40;99338.00;;;;338968;28;83516;-86
2022/06/08 00:03:01;;;;;;;;;;;19.20;87.70;19.40;99337.00;;;;338639;28;91706;-86
2022/06/08 00:03:16;;;;;;;;;;;19.20;87.90;19.40;99339.00;;;;337714;28;82816;-86
2022/06/08 00:03:39;;;;;;;;;;;19.20;88.10;19.30;99334.00;;;;339997;28;89280;-86
2022/06/08 00:03:53;;;;;;;;;;;19.20;88.00;19.30;99338.00;;;;337802;28;83395;-86
2022/06/08 00:04:05;;;;;;;;;;;19.20;87.90;19.30;99336.00;;;;338604;28;91145;-86
2022/06/08 00:04:22;;;;;;;;;;;19.20;87.70;19.30;99340.00;;;;340273;28;83562;-86
2022/06/08 00:04:34;;;;;;;;;;;19.20;87.90;19.30;99338.00;;;;337367;28;91285;-86
2022/06/08 00:04:46;;;;;;;;;;;19.20;88.20;19.40;99336.00;;;;337713;28;82324;-86
2022/06/08 00:04:58;;;;;;;;;;;19.20;88.10;19.50;99340.00;;;;335829;28;91428;-86
2022/06/08 00:05:10;;;;;;;;;;;19.20;87.90;19.50;99339.00;;;;336562;28;82490;-86
2022/06/08 00:05:22;;;;;;;;;;;19.20;88.10;19.40;99338.00;;;;339985;28;90470;-86
2022/06/08 00:05:34;;;;;;;;;;;19.20;88.40;19.40;99334.00;;;;337592;28;82502;-86
2022/06/08 00:05:45;;;;;;;;;;;19.20;88.80;19.30;99334.00;;;;337331;28;88082;-86
2022/06/08 00:05:57;;;;;;;;;;;19.20;88.70;19.30;99335.00;;;;339070;28;82366;-86
2022/06/08 00:06:09;;;;;;;;;;;19.20;88.40;19.30;99338.00;;;;338503;28;91174;-86
2022/06/08 00:06:21;;;;;;;;;;;19.20;88.00;19.30;99347.00;;;;338996;28;83520;-86
2022/06/08 00:06:33;;;;;;;;;;;19.10;88.70;19.30;99336.00;;;;340188;28;89245;-86
2022/06/08 00:06:44;;;;;;;;;;;19.10;88.40;19.20;99339.00;;;;340363;28;83316;-86
2022/06/08 00:06:56;;;;;;;;;;;19.20;88.80;19.30;99339.00;;;;338505;28;90456;-86
2022/06/08 00:07:08;;;;;;;;;;;19.10;88.60;19.20;99339.00;;;;339574;28;83542;-86
2022/06/08 00:07:20;;;;;;;;;;;19.10;88.60;19.20;99343.00;;;;339830;28;91870;-86
2022/06/08 00:07:31;;;;;;;;;;;19.10;88.70;19.20;99332.00;;;;339173;28;82378;-84
2022/06/08 00:07:43;;;;;;;;;;;19.10;88.70;19.20;99337.00;;;;341175;28;92444;-86
2022/06/08 00:07:57;;;;;;;;;;;19.10;88.20;19.30;99342.00;;;;337656;28;83461;-86
2022/06/08 00:08:09;;;;;;;;;;;19.10;88.00;19.30;99340.00;;;;339919;28;92265;-86
2022/06/08 00:08:20;;;;;;;;;;;19.10;88.30;19.20;99343.00;;;;341667;28;83412;-86
2022/06/08 00:08:32;;;;;;;;;;;19.10;88.80;19.40;99339.00;;;;337163;28;91195;-86
2022/06/08 00:08:45;;;;;;;;;;;19.10;88.50;19.50;99338.00;;;;339037;28;83469;-86
2022/06/08 00:08:56;;;;;;;;;;;19.10;88.60;19.40;99336.00;;;;339966;28;91238;-86
2022/06/08 00:09:08;;;;;;;;;;;19.10;88.60;19.40;99335.00;;;;337744;28;83217;-86
2022/06/08 00:09:20;;;;;;;;;;;19.10;88.30;19.30;99341.00;;;;340055;28;90432;-86
2022/06/08 00:09:33;;;;;;;;;;;19.10;88.50;19.20;99337.00;;;;340424;28;83169;-86
2022/06/08 00:09:45;;;;;;;;;;;19.10;88.70;19.10;99331.00;;;;337190;28;92046;-86
2022/06/08 00:09:58;;;;;;;;;;;19.10;89.10;19.20;99335.00;;;;339079;28;83258;-86
2022/06/08 00:10:10;;;;;;;;;;;19.10;88.90;19.10;99335.00;;;;338470;28;91386;-86
2022/06/08 00:10:22;;;;;;;;;;;19.10;89.00;19.30;99328.00;;;;337599;28;83262;-86
2022/06/08 00:10:34;;;;;;;;;;;19.10;88.50;19.30;99338.00;;;;336011;29;91648;-86
2022/06/08 00:10:46;;;;;;;;;;;19.10;88.70;19.30;99335.00;;;;337666;28;82372;-86
2022/06/08 00:10:58;;;;;;;;;;;19.10;88.20;19.30;99336.00;;;;338631;28;91363;-86
2022/06/08 00:11:09;;;;;;;;;;;19.10;88.10;19.20;99334.00;;;;339109;28;83310;-86
2022/06/08 00:11:21;;;;;;;;;;;19.10;88.30;19.30;99337.00;;;;338616;28;91115;-86
2022/06/08 00:11:33;;;;;;;;;;;19.10;88.00;19.30;99330.00;;;;339013;28;82537;-86
2022/06/08 00:11:45;;;;;;;;;;;19.10;88.50;19.30;99338.00;;;;337475;28;90353;-86
2022/06/08 00:11:56;;;;;;;;;;;19.10;88.30;19.20;99337.00;;;;337952;28;83340;-86
2022/06/08 00:12:09;;;;;;;;;;;19.10;88.20;19.10;99341.00;;;;338732;28;92520;-86
2022/06/08 00:12:21;;;;;;;;;;;19.10;88.60;19.10;99328.00;;;;339183;28;83519;-86
2022/06/08 00:12:32;;;;;;;;;;;19.10;89.00;19.30;99338.00;;;;338768;28;91154;-86
2022/06/08 00:12:44;;;;;;;;;;;19.00;88.50;19.30;99333.00;;;;337893;28;83314;-86
2022/06/08 00:12:56;;;;;;;;;;;19.00;88.50;19.30;99333.00;;;;336166;28;90013;-86
2022/06/08 00:13:08;;;;;;;;;;;19.00;88.20;19.40;99333.00;;;;337845;28;83528;-86
2022/06/08 00:13:20;;;;;;;;;;;19.10;88.30;19.40;99332.00;;;;336223;28;90452;-86
2022/06/08 00:13:31;;;;;;;;;;;19.10;88.40;19.40;99327.00;;;;337997;28;82345;-86
2022/06/08 00:13:48;;;;;;;;;;;19.10;88.50;19.50;99334.00;;;;340144;28;90046;-86
2022/06/08 00:14:00;;;;;;;;;;;19.10;88.50;19.50;99339.00;;;;337928;28;82519;-86
2022/06/08 00:14:12;;;;;;;;;;;19.10;88.50;19.50;99336.00;;;;340085;28;92270;-86
2022/06/08 00:14:24;;;;;;;;;;;19.10;88.70;19.40;99334.00;;;;340433;27;82502;-86
2022/06/08 00:14:36;;;;;;;;;;;19.10;88.80;19.40;99325.00;;;;338869;28;91294;-85
2022/06/08 00:14:48;;;;;;;;;;;19.10;88.50;19.50;99335.00;;;;339318;28;82488;-86
2022/06/08 00:14:59;;;;;;;;;;;19.10;88.50;19.40;99328.00;;;;338784;28;90479;-86
2022/06/08 00:15:11;;;;;;;;;;;19.10;88.60;19.40;99332.00;;;;339209;28;83458;-86
2022/06/08 00:15:24;;;;;;;;;;;19.10;88.70;19.50;99333.00;;;;340084;28;91010;-86
2022/06/08 00:15:37;;;;;;;;;;;19.10;88.60;19.50;99333.00;;;;340658;28;82261;-86
2022/06/08 00:15:48;;;;;;;;;;;19.10;88.50;19.40;99331.00;;;;339949;28;89267;-86
2022/06/08 00:16:01;;;;;;;;;;;19.10;88.60;19.40;99335.00;;;;348983;27;83414;-86
2022/06/08 00:16:13;;;;;;;;;;;19.10;88.30;19.50;99332.00;;;;345711;28;91496;-86
2022/06/08 00:16:25;;;;;;;;;;;19.10;88.30;19.50;99333.00;;;;340543;28;83392;-86
2022/06/08 00:16:37;;;;;;;;;;;19.10;88.30;19.40;99332.00;;;;340233;28;90033;-86
2022/06/08 00:16:49;;;;;;;;;;;19.10;88.30;19.30;99335.00;;;;343548;28;82581;-86
2022/06/08 00:17:01;;;;;;;;;;;19.10;89.20;19.10;99332.00;;;;344137;28;90873;-86
2022/06/08 00:17:12;;;;;;;;;;;19.10;89.00;19.10;99340.00;;;;339284;28;83291;-86
2022/06/08 00:17:24;;;;;;;;;;;19.10;89.10;19.10;99332.00;;;;338803;28;91003;-86
2022/06/08 00:17:36;;;;;;;;;;;19.10;89.30;19.10;99327.00;;;;342046;28;82391;-86
2022/06/08 00:17:48;;;;;;;;;;;19.10;89.00;19.20;99327.00;;;;347286;28;90256;-86
2022/06/08 00:18:01;;;;;;;;;;;19.10;88.50;19.10;99330.00;;;;344968;28;83474;-86
2022/06/08 00:18:13;;;;;;;;;;;19.10;88.50;19.30;99326.00;;;;337496;28;91636;-86
2022/06/08 00:18:25;;;;;;;;;;;19.10;88.30;19.20;99337.00;;;;339163;28;83351;-86
2022/06/08 00:18:39;;;;;;;;;;;19.10;88.70;19.20;99330.00;;;;338870;28;90483;-86
2022/06/08 00:18:51;;;;;;;;;;;19.00;88.30;19.30;99325.00;;;;346272;28;83421;-86
2022/06/08 00:19:02;;;;;;;;;;;19.10;88.10;19.30;99331.00;;;;337494;28;91785;-86
2022/06/08 00:19:14;;;;;;;;;;;19.00;88.30;19.30;99333.00;;;;344829;28;82317;-86
2022/06/08 00:19:26;;;;;;;;;;;19.10;88.10;19.20;99328.00;;;;338736;28;91495;-86
2022/06/08 00:19:38;;;;;;;;;;;19.00;88.40;19.10;99329.00;;;;340524;28;83408;-86
2022/06/08 00:19:50;;;;;;;;;;;19.00;88.70;19.10;99331.00;;;;336189;28;90647;-86
2022/06/08 00:20:03;;;;;;;;;;;19.00;88.90;19.20;99326.00;;;;337940;28;83355;-86
2022/06/08 00:20:15;;;;;;;;;;;19.00;88.90;19.10;99326.00;;;;342743;28;92034;-86
2022/06/08 00:20:27;;;;;;;;;;;19.00;88.80;19.10;99327.00;;;;339232;28;83208;-86
2022/06/08 00:20:39;;;;;;;;;;;19.00;88.80;19.20;99326.00;;;;337458;28;89361;-86
2022/06/08 00:20:51;;;;;;;;;;;19.00;88.50;19.10;99329.00;;;;341899;28;82556;-86
2022/06/08 00:21:03;;;;;;;;;;;19.00;88.90;19.10;99326.00;;;;335962;28;91081;-87
2022/06/08 00:21:15;;;;;;;;;;;19.00;89.00;19.10;99320.00;;;;339340;28;83353;-86
2022/06/08 00:21:27;;;;;;;;;;;19.00;88.90;19.10;99328.00;;;;341501;27;91488;-86
2022/06/08 00:21:38;;;;;;;;;;;19.00;89.40;19.20;99326.00;;;;337887;28;83425;-86
2022/06/08 00:21:50;;;;;;;;;;;19.00;89.00;19.20;99326.00;;;;338847;28;89105;-86
2022/06/08 00:22:02;;;;;;;;;;;19.00;88.90;19.20;99322.00;;;;339257;28;83228;-86
2022/06/08 00:22:14;;;;;;;;;;;19.00;88.90;19.30;99326.00;;;;338708;28;91644;-86
2022/06/08 00:22:26;;;;;;;;;;;19.00;88.60;19.40;99324.00;;;;337865;28;83539;-86
2022/06/08 00:22:37;;;;;;;;;;;19.00;88.60;19.40;99332.00;;;;338860;28;90125;-86
2022/06/08 00:22:49;;;;;;;;;;;19.00;88.50;19.20;99326.00;;;;337839;28;83501;-87
2022/06/08 00:23:01;;;;;;;;;;;19.00;89.00;19.20;99324.00;;;;337473;28;89866;-87
2022/06/08 00:23:13;;;;;;;;;;;19.00;88.80;19.30;99331.00;;;;341853;28;82524;-86
2022/06/08 00:23:25;;;;;;;;;;;19.00;88.70;19.30;99324.00;;;;338853;28;90595;-86
2022/06/08 00:23:37;;;;;;;;;;;19.00;88.70;19.30;99327.00;;;;339049;28;82629;-86
2022/06/08 00:23:49;;;;;;;;;;;19.00;88.70;19.30;99328.00;;;;340203;28;88502;-85
2022/06/08 00:24:01;;;;;;;;;;;19.00;88.50;19.20;99330.00;;;;340025;28;82557;-86
2022/06/08 00:24:13;;;;;;;;;;;19.00;89.40;19.20;99326.00;;;;339998;28;91473;-86
2022/06/08 00:24:25;;;;;;;;;;;19.00;88.60;19.20;99328.00;;;;340538;28;83417;-86
2022/06/08 00:24:36;;;;;;;;;;;19.00;88.90;19.10;99330.00;;;;338741;28;92098;-86
2022/06/08 00:24:48;;;;;;;;;;;19.00;89.10;19.00;99331.00;;;;339166;28;83455;-86
2022/06/08 00:25:00;;;;;;;;;;;19.00;89.20;19.10;99333.00;;;;337509;28;90304;-86
2022/06/08 00:25:12;;;;;;;;;;;19.00;88.90;19.10;99325.00;;;;339257;28;83271;-86
2022/06/08 00:25:23;;;;;;;;;;;19.00;89.00;19.20;99327.00;;;;337269;28;91497;-86
2022/06/08 00:25:35;;;;;;;;;;;19.00;88.70;19.10;99331.00;;;;337879;28;82560;-86
2022/06/08 00:25:47;;;;;;;;;;;19.00;88.80;19.00;99332.00;;;;337484;28;90134;-86
2022/06/08 00:25:59;;;;;;;;;;;19.00;89.20;19.20;99318.00;;;;339210;28;83415;-86
2022/06/08 00:26:10;;;;;;;;;;;19.00;88.90;19.30;99329.00;;;;338813;28;92075;-86
2022/06/08 00:26:24;;;;;;;;;;;19.00;88.80;19.20;99330.00;;;;340449;28;82570;-86
2022/06/08 00:26:36;;;;;;;;;;;19.00;88.80;19.20;99322.00;;;;338828;28;91270;-86
2022/06/08 00:26:48;;;;;;;;;;;19.00;88.80;19.10;99320.00;;;;339300;28;82412;-86
2022/06/08 00:27:00;;;;;;;;;;;19.00;88.90;19.00;99327.00;;;;337422;28;91835;-86
2022/06/08 00:27:12;;;;;;;;;;;19.00;89.40;19.10;99324.00;;;;337935;28;83481;-86
2022/06/08 00:27:24;;;;;;;;;;;19.00;89.30;19.20;99327.00;;;;338846;28;90156;-86
2022/06/08 00:27:36;;;;;;;;;;;19.00;89.00;19.20;99327.00;;;;339187;28;83292;-86
2022/06/08 00:27:48;;;;;;;;;;;19.00;89.00;19.20;99323.00;;;;340110;28;91025;-86
2022/06/08 00:27:59;;;;;;;;;;;19.00;89.00;19.20;99322.00;;;;339236;28;83394;-86
2022/06/08 00:28:11;;;;;;;;;;;19.00;89.20;19.10;99322.00;;;;338774;28;91207;-86
2022/06/08 00:28:23;;;;;;;;;;;19.00;89.00;19.10;99326.00;;;;340443;28;83355;-86
2022/06/08 00:28:35;;;;;;;;;;;19.00;89.10;19.10;99326.00;;;;338779;28;91613;-86
2022/06/08 00:28:46;;;;;;;;;;;19.00;88.90;19.10;99324.00;;;;340516;28;83266;-86
2022/06/08 00:28:58;;;;;;;;;;;19.00;88.90;19.10;99325.00;;;;341420;28;91495;-86
2022/06/08 00:29:10;;;;;;;;;;;19.00;89.00;19.10;99325.00;;;;340544;28;83257;-86
2022/06/08 00:29:22;;;;;;;;;;;19.00;88.70;19.10;99323.00;;;;337556;28;91202;-86
2022/06/08 00:29:33;;;;;;;;;;;19.00;89.10;19.10;99325.00;;;;340618;28;83406;-86
2022/06/08 00:29:45;;;;;;;;;;;18.90;88.80;19.10;99327.00;;;;338702;28;91411;-86
2022/06/08 00:29:58;;;;;;;;;;;19.00;88.90;19.10;99323.00;;;;339278;28;83214;-86
2022/06/08 00:30:10;;;;;;;;;;;18.90;88.60;19.10;99324.00;;;;338766;28;91110;-86
2022/06/08 00:30:22;;;;;;;;;;;18.90;88.60;19.10;99320.00;;;;340548;28;83309;-86
2022/06/08 00:30:34;;;;;;;;;;;18.90;88.90;19.10;99318.00;;;;338766;28;90191;-86
2022/06/08 00:30:45;;;;;;;;;;;18.90;89.00;19.10;99320.00;;;;339090;28;83371;-86
2022/06/08 00:30:57;;;;;;;;;;;18.90;88.70;19.20;99319.00;;;;340111;28;91626;-86
2022/06/08 00:31:10;;;;;;;;;;;18.90;88.40;19.10;99318.00;;;;337569;28;82483;-86
2022/06/08 00:31:22;;;;;;;;;;;18.90;88.30;19.20;99326.00;;;;340012;28;91633;-86
2022/06/08 00:31:34;;;;;;;;;;;18.90;88.70;19.20;99311.00;;;;341943;27;82318;-86
2022/06/08 00:31:46;;;;;;;;;;;18.90;89.00;19.10;99307.00;;;;338806;28;91456;-85
2022/06/08 00:31:58;;;;;;;;;;;18.90;89.20;19.20;99317.00;;;;339206;28;83442;-86
2022/06/08 00:32:10;;;;;;;;;;;18.90;88.70;19.10;99310.00;;;;340152;28;91460;-86
2022/06/08 00:32:22;;;;;;;;;;;18.90;89.00;19.20;99316.00;;;;340608;28;83251;-86
2022/06/08 00:32:34;;;;;;;;;;;18.90;89.00;19.00;99314.00;;;;338741;28;90314;-86
2022/06/08 00:32:46;;;;;;;;;;;18.90;89.10;19.20;99308.00;;;;339379;28;82375;-86
2022/06/08 00:32:58;;;;;;;;;;;18.90;89.10;19.20;99311.00;;;;337482;28;90267;-86
2022/06/08 00:33:09;;;;;;;;;;;18.90;89.20;19.20;99305.00;;;;337927;28;83313;-86
2022/06/08 00:33:21;;;;;;;;;;;18.90;89.50;19.20;99308.00;;;;337518;28;90067;-86
2022/06/08 00:33:33;;;;;;;;;;;18.90;89.30;19.20;99314.00;;;;339316;28;82592;-86
2022/06/08 00:33:45;;;;;;;;;;;18.90;89.30;19.10;99311.00;;;;338765;28;90889;-86
2022/06/08 00:33:57;;;;;;;;;;;18.90;89.30;19.10;99300.00;;;;337750;28;84071;-86
2022/06/08 00:34:09;;;;;;;;;;;18.90;89.20;19.00;99306.00;;;;337511;28;89736;-86
2022/06/08 00:34:21;;;;;;;;;;;19.00;89.30;19.00;99298.00;;;;337862;28;83349;-85
2022/06/08 00:34:32;;;;;;;;;;;18.90;89.40;19.00;99315.00;;;;340026;28;91711;-86
2022/06/08 00:34:46;;;;;;;;;;;19.00;89.50;19.10;99308.00;;;;337895;28;83333;-86
2022/06/08 00:35:00;;;;;;;;;;;18.90;89.00;19.00;99298.00;;;;337429;28;90427;-86
2022/06/08 00:35:12;;;;;;;;;;;18.90;89.20;18.90;99308.00;;;;339242;28;83331;-86
2022/06/08 00:35:25;;;;;;;;;;;18.90;89.20;18.90;99310.00;;;;337490;28;91716;-86
2022/06/08 00:35:36;;;;;;;;;;;19.00;89.40;18.90;99311.00;;;;337833;28;83468;-86
2022/06/08 00:35:48;;;;;;;;;;;18.90;89.70;18.90;99298.00;;;;337456;28;91186;-86
2022/06/08 00:36:00;;;;;;;;;;;18.90;89.50;18.90;99298.00;;;;337809;28;83432;-86
2022/06/08 00:36:12;;;;;;;;;;;18.90;89.80;18.90;99300.00;;;;336012;28;92007;-86
2022/06/08 00:36:24;;;;;;;;;;;18.90;89.60;19.00;99298.00;;;;336563;28;83458;-86
2022/06/08 00:36:35;;;;;;;;;;;18.80;89.20;18.90;99296.00;;;;337493;28;90133;-86
2022/06/08 00:36:47;;;;;;;;;;;18.90;89.70;18.90;99300.00;;;;339072;28;82499;-86
2022/06/08 00:36:59;;;;;;;;;;;18.90;89.60;18.80;99293.00;;;;337396;28;90492;-86
2022/06/08 00:37:10;;;;;;;;;;;18.80;89.50;18.90;99296.00;;;;340513;28;83368;-86
2022/06/08 00:37:24;;;;;;;;;;;18.80;89.20;18.90;99300.00;;;;340143;28;91311;-86
2022/06/08 00:37:35;;;;;;;;;;;18.90;89.30;18.90;99292.00;;;;339136;28;83082;-86
2022/06/08 00:37:47;;;;;;;;;;;18.80;89.10;18.90;99304.00;;;;338927;28;88099;-86
2022/06/08 00:37:59;;;;;;;;;;;18.80;89.20;18.90;99298.00;;;;339186;28;83307;-86
2022/06/08 00:38:10;;;;;;;;;;;18.80;89.20;18.80;99295.00;;;;336094;28;91269;-86
2022/06/08 00:38:22;;;;;;;;;;;18.80;89.50;18.80;99298.00;;;;336629;28;82495;-86
2022/06/08 00:38:35;;;;;;;;;;;18.80;89.40;18.80;99294.00;;;;337221;28;91370;-86
2022/06/08 00:38:47;;;;;;;;;;;18.80;89.50;18.90;99295.00;;;;336426;28;82642;-87
2022/06/08 00:38:58;;;;;;;;;;;18.80;89.50;18.80;99293.00;;;;337137;28;89513;-86
2022/06/08 00:39:10;;;;;;;;;;;18.70;89.50;18.80;99299.00;;;;338327;28;88934;-86
2022/06/08 00:39:22;;;;;;;;;;;18.70;89.60;18.80;99312.00;;;;337555;28;89236;-87
2022/06/08 00:39:34;;;;;;;;;;;18.70;89.50;18.80;99291.00;;;;337960;28;82555;-86
2022/06/08 00:39:45;;;;;;;;;;;18.70;89.40;18.80;99304.00;;;;337469;28;91635;-86
2022/06/08 00:39:57;;;;;;;;;;;18.70;89.50;18.90;99297.00;;;;336603;28;82370;-86
2022/06/08 00:40:10;;;;;;;;;;;18.70;89.50;18.80;99295.00;;;;337396;28;92581;-86
2022/06/08 00:40:23;;;;;;;;;;;18.70;89.90;18.80;99296.00;;;;340505;28;83339;-86
2022/06/08 00:41:00;;;;;;;;;;;18.70;89.50;18.80;99300.00;;;;340143;28;90422;-86
2022/06/08 00:41:36;;;;;;;;;;;18.70;89.60;18.70;99300.00;;;;339209;28;83484;-86
2022/06/08 00:41:53;;;;;;;;;;;18.70;90.10;18.70;99298.00;;;;340185;28;90145;-86
2022/06/08 00:42:07;;;;;;;;;;;18.70;90.00;18.70;99293.00;;;;344014;28;83476;-86
2022/06/08 00:42:18;;;;;;;;;;;18.60;89.70;18.70;99300.00;;;;338517;28;91627;-86
2022/06/08 00:42:30;;;;;;;;;;;18.70;90.00;18.70;99292.00;;;;340656;28;83492;-86
2022/06/08 00:42:42;;;;;;;;;;;18.70;90.00;18.70;99290.00;;;;338752;28;91665;-86
2022/06/08 00:42:53;;;;;;;;;;;18.60;89.80;18.80;99294.00;;;;336745;28;83408;-86
2022/06/08 00:43:05;;;;;;;;;;;18.60;89.40;18.70;99292.00;;;;337765;28;93164;-86
2022/06/08 00:43:17;;;;;;;;;;;18.60;89.60;18.70;99300.00;;;;340407;27;83489;-86
2022/06/08 00:43:29;;;;;;;;;;;18.60;89.60;18.80;99296.00;;;;340153;28;91525;-86
2022/06/08 00:43:41;;;;;;;;;;;18.60;89.50;18.70;99296.00;;;;340466;28;83519;-86
2022/06/08 00:43:53;;;;;;;;;;;18.60;89.80;18.70;99300.00;;;;340089;28;89679;-86
2022/06/08 00:44:09;;;;;;;;;;;18.60;90.00;18.70;99297.00;;;;339403;28;82417;-87
2022/06/08 00:44:33;;;;;;;;;;;18.60;90.00;18.70;99293.00;;;;338731;28;91542;-86
2022/06/08 00:45:16;;;;;;;;;;;18.60;90.00;18.70;99292.00;;;;348824;27;83403;-86
2022/06/08 00:45:28;;;;;;;;;;;18.60;90.00;18.90;99300.00;;;;337516;28;91726;-86
2022/06/08 00:45:40;;;;;;;;;;;18.60;89.70;18.90;99293.00;;;;339284;28;82571;-86
2022/06/08 00:45:51;;;;;;;;;;;18.60;89.60;19.00;99291.00;;;;338506;28;92067;-86
2022/06/08 00:46:03;;;;;;;;;;;18.60;90.00;19.00;99283.00;;;;336689;28;82381;-86
2022/06/08 00:46:15;;;;;;;;;;;18.60;90.00;19.10;99294.00;;;;337401;28;91871;-86
2022/06/08 00:46:27;;;;;;;;;;;18.60;90.00;19.00;99293.00;;;;336572;28;83522;-86
2022/06/08 00:46:39;;;;;;;;;;;18.70;90.10;18.90;99285.00;;;;337487;28;90113;-87
2022/06/08 00:46:51;;;;;;;;;;;18.60;90.00;19.00;99289.00;;;;340422;28;82487;-86
2022/06/08 00:47:06;;;;;;;;;;;18.70;90.00;19.00;99294.00;;;;343030;28;89051;-86
2022/06/08 00:47:20;;;;;;;;;;;18.70;90.20;18.90;99291.00;;;;344592;28;83535;-86
2022/06/08 00:47:35;;;;;;;;;;;18.70;89.90;19.00;99282.00;;;;338727;28;90487;-86
2022/06/08 00:48:01;;;;;;;;;;;18.70;89.60;19.00;99295.00;;;;339246;28;83417;-86
2022/06/08 00:48:13;;;;;;;;;;;18.70;89.70;19.00;99292.00;;;;340158;28;89895;-86
2022/06/08 00:48:26;;;;;;;;;;;18.70;89.90;19.10;99290.00;;;;339203;28;83388;-86
2022/06/08 00:48:40;;;;;;;;;;;18.70;90.00;19.10;99295.00;;;;338745;28;91328;-86
2022/06/08 00:48:58;;;;;;;;;;;18.70;90.00;19.10;99290.00;;;;339318;28;82437;-86
2022/06/08 00:49:22;;;;;;;;;;;18.70;90.00;19.10;99288.00;;;;338760;28;91589;-86
2022/06/08 00:49:47;;;;;;;;;;;18.70;89.80;19.00;99298.00;;;;339223;28;83450;-86
2022/06/08 00:50:03;;;;;;;;;;;18.70;90.00;19.00;99294.00;;;;339904;28;91649;-86
2022/06/08 00:50:21;;;;;;;;;;;18.70;90.00;18.90;99287.00;;;;337835;28;83371;-86
2022/06/08 00:50:36;;;;;;;;;;;18.70;90.00;19.00;99279.00;;;;337425;28;90284;-86
2022/06/08 00:50:50;;;;;;;;;;;18.70;90.10;19.00;99290.00;;;;339260;28;83473;-86
2022/06/08 00:51:02;;;;;;;;;;;18.70;90.00;18.90;99280.00;;;;338935;28;90995;-86
2022/06/08 00:51:14;;;;;;;;;;;18.70;90.20;19.00;99297.00;;;;340504;28;83497;-86
2022/06/08 00:51:26;;;;;;;;;;;18.70;90.00;19.00;99278.00;;;;342840;28;91503;-86
2022/06/08 00:51:38;;;;;;;;;;;18.70;89.80;19.00;99289.00;;;;341879;28;82482;-86
2022/06/08 00:51:50;;;;;;;;;;;18.70;89.70;19.00;99288.00;;;;338824;28;91528;-86
2022/06/08 00:52:02;;;;;;;;;;;18.70;89.70;19.00;99288.00;;;;340558;28;83290;-86
2022/06/08 00:52:14;;;;;;;;;;;18.70;89.80;19.00;99283.00;;;;338736;28;91105;-86
2022/06/08 00:52:26;;;;;;;;;;;18.70;89.70;19.00;99294.00;;;;339223;28;82468;-85
2022/06/08 00:52:38;;;;;;;;;;;18.70;89.60;18.90;99287.00;;;;338772;28;91191;-86
2022/06/08 00:52:49;;;;;;;;;;;18.70;90.00;19.00;99292.00;;;;339202;28;83301;-86
2022/06/08 00:53:01;;;;;;;;;;;18.70;89.70;19.00;99285.00;;;;341338;28;92224;-86
2022/06/08 00:53:14;;;;;;;;;;;18.70;89.70;18.90;99289.00;;;;341757;28;83431;-86
2022/06/08 00:53:40;;;;;;;;;;;18.80;89.60;18.80;99286.00;;;;336168;28;91555;-86
2022/06/08 00:54:00;;;;;;;;;;;18.70;90.00;19.00;99289.00;;;;339157;28;83283;-86
2022/06/08 00:54:16;;;;;;;;;;;18.70;89.80;18.90;99277.00;;;;337577;28;90386;-86
2022/06/08 00:54:33;;;;;;;;;;;18.70;89.80;18.90;99286.00;;;;336581;28;83404;-86
2022/06/08 00:54:48;;;;;;;;;;;18.70;90.00;18.80;99283.00;;;;337448;28;90257;-86
2022/06/08 00:55:02;;;;;;;;;;;18.70;90.10;18.90;99284.00;;;;337837;28;83443;-86
2022/06/08 00:55:15;;;;;;;;;;;18.70;90.10;18.90;99283.00;;;;337518;28;90238;-86
2022/06/08 00:55:28;;;;;;;;;;;18.70;89.70;18.80;99277.00;;;;339128;28;83396;-86
2022/06/08 00:55:39;;;;;;;;;;;18.70;89.90;18.80;99285.00;;;;337284;28;92680;-86
2022/06/08 00:55:51;;;;;;;;;;;18.70;90.10;18.70;99280.00;;;;336545;28;83503;-86
2022/06/08 00:56:04;;;;;;;;;;;18.70;90.20;18.70;99281.00;;;;337266;28;92143;-86
2022/06/08 00:56:18;;;;;;;;;;;18.70;90.20;18.70;99288.00;;;;339190;28;83138;-86
2022/06/08 00:56:34;;;;;;;;;;;18.70;90.10;18.70;99289.00;;;;340147;28;90250;-86
2022/06/08 00:56:49;;;;;;;;;;;18.70;90.30;18.60;99283.00;;;;337899;28;83104;-86
2022/06/08 00:57:08;;;;;;;;;;;18.70;90.40;18.70;99288.00;;;;337376;28;90484;-86
2022/06/08 00:57:57;;;;;;;;;;;18.60;90.30;18.70;99288.00;;;;337834;28;83748;-86
2022/06/08 00:58:15;;;;;;;;;;;18.60;90.00;18.60;99291.00;;;;341523;28;91722;-86
2022/06/08 00:58:29;;;;;;;;;;;18.60;90.50;18.60;99288.00;;;;341933;28;83358;-86
2022/06/08 00:58:41;;;;;;;;;;;18.50;90.50;18.80;99289.00;;;;341553;28;92372;-86
2022/06/08 00:58:53;;;;;;;;;;;18.50;90.40;18.70;99279.00;;;;343225;28;83475;-86
2022/06/08 00:59:05;;;;;;;;;;;18.50;90.40;18.80;99282.00;;;;342944;28;88060;-86
2022/06/08 00:59:17;;;;;;;;;;;18.50;90.30;18.90;99281.00;;;;343286;28;83257;-85
2022/06/08 00:59:29;;;;;;;;;;;18.60;90.30;18.80;99286.00;;;;340346;28;90823;-86
2022/06/08 00:59:54;;;;;;;;;;;18.60;90.40;18.90;99283.00;;;;341983;28;83393;-86
2022/06/08 01:00:08;;;;;;;;;;;18.50;90.20;18.90;99287.00;;;;339967;28;90569;-86
2022/06/08 01:00:25;;;;;;;;;;;18.60;90.30;18.80;99278.00;;;;341894;28;83356;-86
2022/06/08 01:00:37;;;;;;;;;;;18.60;90.40;18.70;99281.00;;;;341600;28;90313;-86
2022/06/08 01:00:49;;;;;;;;;;;18.60;90.50;18.80;99276.00;;;;343419;28;83560;-86
2022/06/08 01:01:01;;;;;;;;;;;18.60;90.50;18.80;99282.00;;;;342875;28;92345;-86
2022/06/08 01:01:13;;;;;;;;;;;18.60;90.50;18.80;99274.00;;;;342041;28;82305;-86
2022/06/08 01:01:25;;;;;;;;;;;18.50;90.40;18.90;99280.00;;;;340143;28;91391;-86
2022/06/08 01:01:37;;;;;;;;;;;18.60;90.50;18.90;99275.00;;;;342059;28;83634;-86
2022/06/08 01:01:49;;;;;;;;;;;18.60;90.50;18.90;99281.00;;;;340224;28;91465;-86
2022/06/08 01:02:01;;;;;;;;;;;18.60;90.40;19.00;99282.00;;;;340735;28;83370;-86
2022/06/08 01:02:12;;;;;;;;;;;18.60;90.40;18.90;99280.00;;;;338858;28;89326;-86
2022/06/08 01:02:24;;;;;;;;;;;18.60;90.50;18.90;99281.00;;;;341824;28;82637;-86
2022/06/08 01:02:37;;;;;;;;;;;18.60;90.40;18.90;99277.00;;;;341389;28;90588;-86
2022/06/08 01:02:48;;;;;;;;;;;18.60;90.40;18.90;99276.00;;;;339325;28;83624;-86
2022/06/08 01:03:00;;;;;;;;;;;18.60;90.30;18.70;99282.00;;;;339046;28;91894;-86
2022/06/08 01:03:13;;;;;;;;;;;18.60;90.30;18.80;99275.00;;;;338016;28;82752;-86
2022/06/08 01:03:26;;;;;;;;;;;18.60;90.40;18.80;99290.00;;;;341543;28;91522;-86
2022/06/08 01:03:38;;;;;;;;;;;18.60;90.40;18.80;99280.00;;;;339225;28;83476;-86
2022/06/08 01:03:50;;;;;;;;;;;18.60;90.50;18.80;99268.00;;;;340016;28;90204;-86
2022/06/08 01:04:18;;;;;;;;;;;18.60;90.50;18.70;99282.00;;;;342025;28;83409;-86
2022/06/08 01:04:30;;;;;;;;;;;18.60;90.60;18.60;99276.00;;;;340350;28;90823;-86
2022/06/08 01:04:42;;;;;;;;;;;18.60;90.60;18.70;99274.00;;;;340719;28;82449;-86
2022/06/08 01:05:19;;;;;;;;;;;18.60;90.50;18.60;99271.00;;;;341599;28;90349;-86
2022/06/08 01:05:47;;;;;;;;;;;18.60;90.60;18.60;99270.00;;;;341889;28;83453;-86